Nivala, Finland

5:33 PM EEST on August 28, 2015 (GMT +0300)
IULEBORG4 | | Change Station
CLOSE
Current Station
Personal Weather Station
Location: Nivala, Oulu
Elevation: 200 ft
Nearby Weather Stations

Elev 200 ft 63.89 °N, 25.02 °E | Updated 14 seconds ago

Rain
Rain
59.9 °F
Feels Like 59.9 °F
N
0.0
Wind Variable Wind from WSW
Gusts 0.0 mph

Today
High -- | Low -- °F
--% Chance of Precip.
Yesterday
High -- | Low -- °F
Precip. -- in
5:50 AM 8:50 PM
Waxing Gibbous, 98% visible
Pressure 29.50 in
Visibility 6.2 miles
Clouds Few 2400 ft
Scattered Clouds 5500 ft
Mostly Cloudy 22000 ft
Dew Point 59 °F
Humidity 98%
Rainfall 0.42 in
Snow Depth Not available.
UV 0.0 out of 12
Pollen Not available.
Air Quality Not available.
Flu Activity Not available.
METAR EFKK 281420Z AUTO 03005KT 9999 FEW024 SCT055 BKN220 17/15 Q0999
Pressure 29.50 in
Visibility 6.2 miles
Clouds Few 2400 ft
Scattered Clouds 5500 ft
Mostly Cloudy 22000 ft
Dew Point 59 °F
Humidity 98%
Rainfall 0.42 in
Snow Depth Not available.
UV 0.0 out of 12
Pollen Not available.
Air Quality Not available.
Flu Activity Not available.
METAR EFKK 281420Z AUTO 03005KT 9999 FEW024 SCT055 BKN220 17/15 Q0999

10-Day Weather Forecast

×

Almanac

Astronomy

Aug. 28, 2015 Rise Set
Actual Time
Civil Twilight
Nautical Twilight
Astronomical Twilight
Moon
Length of Visible Light
Length of Day
Tomorrow will be .
, % of the Moon is Illuminated

Today's Extremes

Country Highs Country Lows

Community

WunderPhotos

Upload Photos

1,850,386 photos uploaded!

WunderBlogs® & News

Nearby

Air Quality

  Air Quality AQ Index Pollutant
Not available.

Snow Depth

Station Depth Elevation

Earthquake Activity

City Distance Mag. Time & Date
Minimum magnitude displayed is 2.5.

Coastal Water Temperatures

Place Temperature

Stations

Nearby Weather Stations

Station Location Temp. Windchill Dew Point Humidity Wind Precip. Elev Updated Type